createdAt,value
2019-04-16T00:01:15.813Z,934.1
2019-04-16T00:04:10.579Z,934.7
2019-04-16T00:07:05.395Z,934.5
2019-04-16T00:10:00.193Z,934.5
2019-04-16T00:12:55.033Z,934.6
2019-04-16T00:15:49.822Z,934.5
2019-04-16T00:19:06.987Z,934.5
2019-04-16T00:21:42.202Z,934.5
2019-04-16T00:24:34.243Z,934.5
2019-04-16T00:27:30.096Z,934.5
2019-04-16T00:30:23.838Z,934.3
2019-04-16T00:33:18.599Z,934.5
2019-04-16T00:36:19.098Z,934.5
2019-04-16T00:39:08.367Z,934.5
2019-04-16T00:42:03.003Z,934.4
2019-04-16T00:44:57.855Z,934.4
2019-04-16T00:47:52.859Z,934.4
2019-04-16T00:50:47.262Z,934.2
2019-04-16T00:53:42.094Z,934.4
2019-04-16T00:56:36.865Z,934.2
2019-04-16T00:59:31.602Z,934.2
2019-04-16T01:02:26.354Z,934.3
2019-04-16T01:05:21.167Z,934.4
2019-04-16T01:08:15.846Z,934.2
2019-04-16T01:11:10.582Z,934.2
2019-04-16T01:14:05.347Z,934.2
2019-04-16T01:17:06.021Z,934.4
2019-04-16T01:19:54.841Z,934.4
2019-04-16T01:22:49.601Z,934.4
2019-04-16T01:25:44.341Z,934.3
2019-04-16T01:28:39.090Z,934.4
2019-04-16T01:31:38.643Z,934.5
2019-04-16T01:34:28.504Z,934.3
2019-04-16T01:37:26.854Z,934.4
2019-04-16T01:40:19.830Z,934.4
2019-04-16T01:43:12.733Z,934.4
2019-04-16T01:49:02.312Z,934.4
2019-04-16T01:51:56.880Z,934.4
2019-04-16T01:54:56.004Z,934.2
2019-04-16T01:57:46.332Z,934.3
2019-04-16T02:00:41.074Z,934.3
2019-04-16T02:03:35.739Z,934.3
2019-04-16T02:06:30.418Z,934.2
2019-04-16T02:09:25.100Z,934.2
2019-04-16T02:12:19.769Z,934.4
2019-04-16T02:15:14.558Z,934.5
2019-04-16T02:18:09.150Z,934.4
2019-04-16T02:21:04.068Z,934.5
2019-04-16T02:23:58.555Z,934.5
2019-04-16T02:26:55.832Z,933.9
2019-04-16T02:29:47.948Z,934.5
2019-04-16T02:32:42.619Z,934.5
2019-04-16T02:35:37.293Z,933
2019-04-16T02:38:31.961Z,934.5
2019-04-16T02:41:26.654Z,934.5
2019-04-16T02:44:21.323Z,934.4
2019-04-16T02:47:15.959Z,934.5
2019-04-16T02:50:10.615Z,934.5
2019-04-16T02:53:05.264Z,934.5
2019-04-16T02:55:59.920Z,934.6
2019-04-16T02:58:54.636Z,934.5
2019-04-16T03:01:52.872Z,934.6
2019-04-16T03:04:43.919Z,934.4
2019-04-16T03:07:38.596Z,934.5
2019-04-16T03:10:33.307Z,934.5
2019-04-16T03:13:28.009Z,934.4
2019-04-16T03:16:22.689Z,934.4
2019-04-16T03:19:20.843Z,934.5
2019-04-16T03:22:12.107Z,934.4
2019-04-16T03:25:14.930Z,934.5
2019-04-16T03:28:01.503Z,934.4
2019-04-16T03:30:56.209Z,934.4
2019-04-16T03:33:51.822Z,934.5
2019-04-16T03:36:45.595Z,934.3
2019-04-16T03:39:45.325Z,934.3
2019-04-16T03:42:35.010Z,934.3
2019-04-16T03:45:29.701Z,934.4
2019-04-16T03:48:25.123Z,934.2
2019-04-16T03:51:19.096Z,934.4
2019-04-16T03:54:14.040Z,934.5
2019-04-16T03:57:08.499Z,934.5
2019-04-16T04:00:03.207Z,934
2019-04-16T04:02:57.905Z,934.3
2019-04-16T04:05:52.631Z,934.4
2019-04-16T04:08:53.629Z,934.5
2019-04-16T04:11:42.703Z,932.7
2019-04-16T04:14:36.775Z,934.3
2019-04-16T04:17:31.496Z,934.5
2019-04-16T04:20:26.196Z,934.3
2019-04-16T04:26:15.625Z,934.5
2019-04-16T04:29:10.327Z,934.3
2019-04-16T04:32:05.135Z,934.4
2019-04-16T04:34:59.879Z,934.6
2019-04-16T04:37:54.508Z,934.6
2019-04-16T04:40:51.894Z,934.6
2019-04-16T04:43:43.995Z,934.5
2019-04-16T04:46:38.459Z,934.6
2019-04-16T04:49:33.239Z,934.4
2019-04-16T04:52:28.125Z,934.6
2019-04-16T04:55:27.367Z,934.6
2019-04-16T04:58:17.347Z,934.6
2019-04-16T05:01:14.929Z,933
2019-04-16T05:04:06.771Z,934.5
2019-04-16T05:07:05.290Z,934.4
2019-04-16T05:09:56.206Z,934.5
2019-04-16T05:12:54.083Z,934.7
2019-04-16T05:15:45.661Z,934.6
2019-04-16T05:18:43.224Z,934.7
2019-04-16T05:21:35.121Z,934.8
2019-04-16T05:24:30.713Z,934.9
2019-04-16T05:27:24.567Z,934.8
2019-04-16T05:30:22.545Z,935
2019-04-16T05:33:14.135Z,934.9
2019-04-16T05:36:16.040Z,934.9
2019-04-16T05:39:04.473Z,933.3
2019-04-16T05:41:58.270Z,933.3
2019-04-16T05:44:52.983Z,934.8
2019-04-16T05:47:50.036Z,935
2019-04-16T05:50:42.532Z,934.9
2019-04-16T05:53:41.446Z,934.8
2019-04-16T05:56:32.279Z,935
2019-04-16T05:59:27.284Z,935.1
2019-04-16T06:02:22.342Z,934.9
2019-04-16T06:05:17.706Z,935.1
2019-04-16T06:08:12.899Z,935
2019-04-16T06:11:08.115Z,935
2019-04-16T06:14:03.632Z,935.1
2019-04-16T06:16:58.924Z,935
2019-04-16T06:19:54.324Z,935.2
2019-04-16T06:22:49.885Z,935
2019-04-16T06:25:45.444Z,935.1
2019-04-16T06:28:41.126Z,935.2
2019-04-16T06:31:40.598Z,935.2
2019-04-16T06:34:32.598Z,935.1
2019-04-16T06:37:28.634Z,935.2
2019-04-16T06:40:24.438Z,935.3
2019-04-16T06:43:27.882Z,935.2
2019-04-16T06:46:15.995Z,935.2
2019-04-16T06:49:19.309Z,935.2
2019-04-16T06:52:07.963Z,935.3
2019-04-16T06:55:04.997Z,935.3
2019-04-16T06:58:00.038Z,935.2
2019-04-16T07:00:56.092Z,935.2
2019-04-16T07:03:52.165Z,935.1
2019-04-16T07:06:48.231Z,935.3
2019-04-16T07:09:46.631Z,935.1
2019-04-16T07:12:40.767Z,935.4
2019-04-16T07:15:36.614Z,935.2
2019-04-16T07:18:39.378Z,935.3
2019-04-16T07:21:29.020Z,935.4
2019-04-16T07:24:38.744Z,935.4
2019-04-16T07:27:21.873Z,935.4
2019-04-16T07:30:21.979Z,935.4
2019-04-16T07:33:13.501Z,935.4
2019-04-16T07:36:09.762Z,935.3
2019-04-16T07:39:07.071Z,935.3
2019-04-16T07:42:26.200Z,935.5
2019-04-16T07:44:58.403Z,935.5
2019-04-16T07:47:54.664Z,935.4
2019-04-16T07:50:53.661Z,935.4
2019-04-16T07:53:48.692Z,935.4
2019-04-16T07:56:43.393Z,935.4
2019-04-16T07:59:39.620Z,935.5
2019-04-16T08:02:35.873Z,935.5
2019-04-16T08:05:32.311Z,935.5
2019-04-16T08:08:28.325Z,935.4
2019-04-16T08:11:24.431Z,935.3
2019-04-16T08:14:20.575Z,935.4
2019-04-16T08:17:16.677Z,935.3
2019-04-16T08:20:12.798Z,935.3
2019-04-16T08:23:08.889Z,935.3
2019-04-16T08:26:14.300Z,935.4
2019-04-16T08:29:01.014Z,935.4
2019-04-16T08:31:57.047Z,935.5
2019-04-16T08:34:53.260Z,935.3
2019-04-16T08:37:50.251Z,935.5
2019-04-16T08:40:47.672Z,935.6
2019-04-16T08:43:41.477Z,935.5
2019-04-16T08:46:41.610Z,935.6
2019-04-16T08:49:33.386Z,935.6
2019-04-16T08:52:29.413Z,935.7
2019-04-16T08:55:25.204Z,935.6
2019-04-16T08:58:21.069Z,935.6
2019-04-16T09:01:23.970Z,935.8
2019-04-16T09:04:12.739Z,935.7
2019-04-16T09:07:20.930Z,935
2019-04-16T09:10:30.834Z,935.8
2019-04-16T09:13:06.229Z,935.9
2019-04-16T09:15:56.368Z,935.8
2019-04-16T09:18:51.666Z,935.7
2019-04-16T09:21:47.388Z,935.8
2019-04-16T09:24:43.136Z,935.8
2019-04-16T09:27:38.862Z,935.7
2019-04-16T09:30:34.656Z,935.8
2019-04-16T09:33:34.840Z,935.8
2019-04-16T09:36:26.113Z,935.7
2019-04-16T09:39:21.885Z,935.7
2019-04-16T09:42:17.904Z,935.7
2019-04-16T09:45:13.587Z,935.6
2019-04-16T09:48:08.994Z,935.5
2019-04-16T09:51:04.703Z,935.5
2019-04-16T09:54:00.438Z,935.7
2019-04-16T09:57:01.006Z,935.6
2019-04-16T09:59:51.830Z,935.5
2019-04-16T10:02:47.516Z,935.4
2019-04-16T10:05:43.190Z,935.6
2019-04-16T10:08:44.898Z,935.3
2019-04-16T10:11:37.048Z,935.3
2019-04-16T10:14:30.238Z,935.4
2019-04-16T10:17:26.291Z,935.2
2019-04-16T10:20:21.695Z,934.5
2019-04-16T10:23:17.359Z,935.4
2019-04-16T10:26:13.500Z,935.4
2019-04-16T10:29:08.694Z,935.3
2019-04-16T10:32:04.370Z,935.4
2019-04-16T10:34:59.965Z,935.3
2019-04-16T10:37:55.660Z,935.3
2019-04-16T10:40:51.291Z,935.2
2019-04-16T10:43:46.992Z,935.3
2019-04-16T10:46:43.006Z,935.3
2019-04-16T10:49:38.293Z,935.3
2019-04-16T10:52:33.996Z,935.2
2019-04-16T10:55:29.786Z,935.3
2019-04-16T10:58:25.344Z,935.2
2019-04-16T11:01:20.972Z,935.2
2019-04-16T11:04:16.745Z,935.2
2019-04-16T11:07:12.324Z,935.2
2019-04-16T11:10:11.500Z,935.2
2019-04-16T11:13:03.706Z,935.2
2019-04-16T11:15:59.325Z,935.2
2019-04-16T11:18:55.910Z,935.2
2019-04-16T11:21:50.694Z,935.1
2019-04-16T11:24:46.400Z,935.1
2019-04-16T11:27:41.999Z,935.1
2019-04-16T11:30:37.545Z,935.1
2019-04-16T11:33:33.135Z,935.2
2019-04-16T11:36:32.627Z,935.2
2019-04-16T11:39:24.498Z,935
2019-04-16T11:42:20.044Z,935.1
2019-04-16T11:45:15.648Z,934.9
2019-04-16T11:48:11.441Z,935.1
2019-04-16T11:51:06.650Z,935.1
2019-04-16T11:54:02.265Z,935
2019-04-16T11:57:00.788Z,934.8
2019-04-16T12:00:09.541Z,935
2019-04-16T12:02:48.892Z,935
2019-04-16T12:05:44.568Z,933.7
2019-04-16T12:08:40.074Z,935
2019-04-16T12:11:35.667Z,935
2019-04-16T12:14:35.914Z,935
2019-04-16T12:17:26.964Z,934.9
2019-04-16T12:20:22.621Z,934.9
2019-04-16T12:23:18.133Z,934.5
2019-04-16T12:26:13.827Z,935
2019-04-16T12:29:09.639Z,935
2019-04-16T12:32:06.393Z,934.8
2019-04-16T12:35:00.685Z,935
2019-04-16T12:37:56.354Z,934.9
2019-04-16T12:40:52.082Z,934.9
2019-04-16T12:43:52.154Z,935
2019-04-16T12:46:43.149Z,935
2019-04-16T12:49:38.881Z,934.8
2019-04-16T12:52:34.479Z,934.9
2019-04-16T12:55:33.249Z,934.8
2019-04-16T12:58:26.596Z,934.9
2019-04-16T13:01:21.219Z,934.9
2019-04-16T13:04:16.854Z,934.9
2019-04-16T13:07:12.534Z,934.9
2019-04-16T13:10:08.102Z,935
2019-04-16T13:13:03.853Z,934.9
2019-04-16T13:15:59.495Z,934.9
2019-04-16T13:18:55.108Z,934.9
2019-04-16T13:21:50.795Z,934.2
2019-04-16T13:24:46.471Z,933.7
2019-04-16T13:27:42.156Z,935
2019-04-16T13:30:37.862Z,933.6
2019-04-16T13:33:33.549Z,934.9
2019-04-16T13:36:29.288Z,934.8
2019-04-16T13:39:24.976Z,934.8
2019-04-16T13:42:20.676Z,935
2019-04-16T13:45:27.967Z,935
2019-04-16T13:48:18.137Z,934.9
2019-04-16T13:51:19.326Z,935
2019-04-16T13:54:03.513Z,935
2019-04-16T13:56:59.212Z,934.8
2019-04-16T13:59:54.969Z,934.9
2019-04-16T14:02:52.493Z,935
2019-04-16T14:05:46.389Z,935
2019-04-16T14:08:42.145Z,935
2019-04-16T14:11:37.844Z,934.9
2019-04-16T14:14:33.540Z,934.9
2019-04-16T14:17:29.217Z,934.9
2019-04-16T14:20:24.899Z,934.9
2019-04-16T14:23:20.616Z,935.1
2019-04-16T14:26:16.297Z,935
2019-04-16T14:29:11.979Z,935
2019-04-16T14:32:07.688Z,935.1
2019-04-16T14:35:03.543Z,935
2019-04-16T14:37:59.031Z,935.1
2019-04-16T14:40:54.731Z,935.1
2019-04-16T14:43:50.377Z,935.1
2019-04-16T14:46:46.047Z,935.1
2019-04-16T14:49:41.671Z,935.2
2019-04-16T14:52:37.311Z,935.1
2019-04-16T14:55:32.947Z,935.2
2019-04-16T14:58:28.547Z,935.2
2019-04-16T15:01:24.181Z,935.2
2019-04-16T15:04:19.811Z,935.3
2019-04-16T15:07:15.410Z,935
2019-04-16T15:10:11.043Z,935.2
2019-04-16T15:13:06.629Z,935
2019-04-16T15:16:22.525Z,935.2
2019-04-16T15:18:57.821Z,935.2
2019-04-16T15:21:53.465Z,935.2
2019-04-16T15:24:49.046Z,935.2
2019-04-16T15:27:44.643Z,935.2
2019-04-16T15:30:40.315Z,934
2019-04-16T15:33:40.065Z,935.2
2019-04-16T15:36:31.401Z,935.2
2019-04-16T15:39:27.011Z,935.3
2019-04-16T15:42:22.533Z,935.3
2019-04-16T15:45:18.198Z,935.2
2019-04-16T15:48:19.340Z,934
2019-04-16T15:51:15.829Z,935.2
2019-04-16T15:54:05.036Z,935.2
2019-04-16T15:57:00.751Z,935.2
2019-04-16T15:59:56.155Z,935.3
2019-04-16T16:02:51.879Z,935.2
2019-04-16T16:05:47.432Z,935.3
2019-04-16T16:08:43.048Z,935.1
2019-04-16T16:11:38.671Z,935.3
2019-04-16T16:14:39.515Z,935.3
2019-04-16T16:17:29.950Z,935.4
2019-04-16T16:20:25.585Z,935.2
2019-04-16T16:23:21.151Z,935.4
2019-04-16T16:26:16.889Z,935.3
2019-04-16T16:29:12.518Z,935.5
2019-04-16T16:32:08.362Z,935.5
2019-04-16T16:35:03.730Z,935.4
2019-04-16T16:37:59.839Z,935.5
2019-04-16T16:40:54.980Z,935.4
2019-04-16T16:43:50.597Z,934.3
2019-04-16T16:46:59.269Z,935.5
2019-04-16T16:49:41.828Z,935.5
2019-04-16T16:52:37.434Z,935.5
2019-04-16T16:55:33.076Z,935.6
2019-04-16T16:58:28.620Z,935.5
2019-04-16T17:01:24.190Z,935.1
2019-04-16T17:04:19.743Z,935.7
2019-04-16T17:07:18.430Z,935.7
2019-04-16T17:10:11.326Z,935.7
2019-04-16T17:13:06.798Z,935.8
2019-04-16T17:16:02.033Z,935.8
2019-04-16T17:18:57.586Z,935.7
2019-04-16T17:21:54.542Z,935.8
2019-04-16T17:24:50.371Z,935.7
2019-04-16T17:27:52.372Z,935.6
2019-04-16T17:30:39.738Z,935.7
2019-04-16T17:36:30.790Z,935.8
2019-04-16T17:39:26.315Z,935.8
2019-04-16T17:42:21.813Z,935.9
2019-04-16T17:45:17.310Z,935.9
2019-04-16T17:48:12.791Z,935.7
2019-04-16T17:51:08.261Z,935.8
2019-04-16T17:54:03.941Z,935.9
2019-04-16T17:56:59.397Z,936
2019-04-16T17:59:54.842Z,936
2019-04-16T18:02:49.988Z,936
2019-04-16T18:05:45.334Z,935.6
2019-04-16T18:08:40.737Z,936.1
2019-04-16T18:11:36.138Z,936.1
2019-04-16T18:14:31.548Z,936.2
2019-04-16T18:17:28.605Z,936.3
2019-04-16T18:20:22.294Z,936.3
2019-04-16T18:26:13.019Z,936.2
2019-04-16T18:29:08.405Z,936.3
2019-04-16T18:32:03.819Z,936.4
2019-04-16T18:34:59.161Z,936.4
2019-04-16T18:37:54.685Z,936.5
2019-04-16T18:40:50.028Z,936.6
2019-04-16T18:43:45.311Z,936.7
2019-04-16T18:46:40.685Z,936.1
2019-04-16T18:49:36.048Z,936.8
2019-04-16T18:52:31.397Z,936.6
2019-04-16T18:55:26.763Z,936.8
2019-04-16T18:58:22.129Z,935.4
2019-04-16T19:01:17.471Z,936.8
2019-04-16T19:04:12.808Z,935.5
2019-04-16T19:07:08.176Z,936.8
2019-04-16T19:10:03.948Z,936.9
2019-04-16T19:12:59.279Z,936.9
2019-04-16T19:15:54.573Z,936.9
2019-04-16T19:18:49.469Z,937
2019-04-16T19:21:44.768Z,937
2019-04-16T19:24:40.087Z,936.8
2019-04-16T19:27:35.432Z,937
2019-04-16T19:30:30.693Z,936.9
2019-04-16T19:33:26.044Z,937.2
2019-04-16T19:36:28.011Z,937.2
2019-04-16T19:39:16.595Z,937.2
2019-04-16T19:42:12.289Z,937.3
2019-04-16T19:45:13.095Z,937.2
2019-04-16T19:48:03.377Z,937.3
2019-04-16T19:50:57.848Z,937.4
2019-04-16T19:53:53.444Z,937.4
2019-04-16T19:56:52.430Z,937.3
2019-04-16T19:59:47.687Z,937.4
2019-04-16T20:02:38.756Z,937.2
2019-04-16T20:05:34.004Z,937.4
2019-04-16T20:08:40.333Z,937.5
2019-04-16T20:11:24.486Z,937.5
2019-04-16T20:14:19.625Z,937.6
2019-04-16T20:17:14.855Z,937.6
2019-04-16T20:20:10.082Z,937.4
2019-04-16T20:23:05.362Z,937.6
2019-04-16T20:26:01.908Z,937.6
2019-04-16T20:28:55.987Z,937.6
2019-04-16T20:31:50.967Z,937.5
2019-04-16T20:34:47.013Z,937.5
2019-04-16T20:37:41.420Z,937.5
2019-04-16T20:40:36.619Z,937.4
2019-04-16T20:43:31.819Z,937.6
2019-04-16T20:46:27.075Z,937.6
2019-04-16T20:49:22.270Z,937.6
2019-04-16T20:52:17.406Z,937.6
2019-04-16T20:55:17.153Z,937.6
2019-04-16T20:58:07.818Z,937.4
2019-04-16T21:01:03.261Z,937.4
2019-04-16T21:04:07.671Z,937.6
2019-04-16T21:06:53.408Z,937.5
2019-04-16T21:09:48.552Z,937.6
2019-04-16T21:12:46.648Z,937.7
2019-04-16T21:15:38.909Z,937.5
2019-04-16T21:18:34.086Z,937.6
2019-04-16T21:21:29.254Z,937.6
2019-04-16T21:24:24.405Z,937.6
2019-04-16T21:27:19.560Z,936.2
2019-04-16T21:30:14.694Z,937.6
2019-04-16T21:33:09.800Z,937.7
2019-04-16T21:36:05.998Z,937.6
2019-04-16T21:39:04.190Z,937.7
2019-04-16T21:42:03.941Z,937.5
2019-04-16T21:44:50.384Z,937.1
2019-04-16T21:47:45.498Z,937.6
2019-04-16T21:50:40.672Z,937.7
2019-04-16T21:53:35.754Z,937.7
2019-04-16T21:56:30.847Z,937.7
2019-04-16T21:59:26.038Z,937.7
2019-04-16T22:02:21.111Z,937.7
2019-04-16T22:05:18.420Z,937.8
2019-04-16T22:08:11.212Z,937.8
2019-04-16T22:11:12.926Z,937.8
2019-04-16T22:14:01.694Z,937.8
2019-04-16T22:16:56.715Z,937.8
2019-04-16T22:20:05.225Z,937.8
2019-04-16T22:22:48.032Z,937.9
2019-04-16T22:25:41.710Z,937.8
2019-04-16T22:28:36.736Z,937.7
2019-04-16T22:31:31.769Z,937.8
2019-04-16T22:34:26.789Z,937.8
2019-04-16T22:37:21.855Z,937.9
2019-04-16T22:40:18.048Z,937.9
2019-04-16T22:43:11.817Z,937.9
2019-04-16T22:46:07.172Z,937.9
2019-04-16T22:49:01.834Z,938
2019-04-16T22:51:57.065Z,938
2019-04-16T22:54:53.668Z,938
2019-04-16T22:57:46.883Z,938
2019-04-16T23:00:45.487Z,938
2019-04-16T23:03:36.835Z,937.9
2019-04-16T23:06:31.840Z,938.1
2019-04-16T23:09:26.921Z,937.7
2019-04-16T23:12:28.002Z,938
2019-04-16T23:15:16.801Z,938.2
2019-04-16T23:18:12.869Z,937.8
2019-04-16T23:21:11.948Z,938.2
2019-04-16T23:24:01.877Z,938
2019-04-16T23:26:56.661Z,938.2
2019-04-16T23:29:51.601Z,938.3
2019-04-16T23:32:46.469Z,938.4
2019-04-16T23:35:45.141Z,938.3
2019-04-16T23:38:36.447Z,938.4
2019-04-16T23:41:31.317Z,938.3
2019-04-16T23:44:27.363Z,938.4
2019-04-16T23:47:21.345Z,938.3
2019-04-16T23:50:16.313Z,938.3
2019-04-16T23:53:11.423Z,938.3
2019-04-16T23:56:06.360Z,938.4
2019-04-16T23:59:05.445Z,938.4
